Tiempo atmosférico en la estación meteorológica de Pedrosillo de Los Aires, Salamanca (865 m.)



Fecha
DESCASC
Temp. máxima en grados centígrados (hora)
DESCASC
Temp. mínima en grados centígrados (hora)
DESCASC
Temp. media en grados centígrados
DESCASC
Racha de viento máxima en m/sg (hora)
DESCASC
Velocidad máxima media en intervalos de 10 minutos(hora)
DESCASC
Precipitaciones diarias en mm
DESCASC
Precipitaciones de 00:00 a 06:00 en mm
DESCASC
Precipitaciones de 06:00 a 12:00 en mm
DESCASC
Precipitaciones de 12:00 a 18:00 en mm
DESCASC
Precipitaciones de 18:00 a 24:00 en mm
DESCASC
16-01-2020 10.2 (17:20) 6.8 (23:50) 8.5 17.22 (20:10) 10.83 (20:40) 0.2 0 0 0 0.2
15-01-2020 8.6 (16:50) 5.7 (08:50) 7.2 14.72 (02:30) 9.72 (02:40) 1.6 0.4 0.8 0.2 0.2
14-01-2020 6.6 (23:59) -1.6 (07:00) 2.5 13.89 (23:59) 9.72 (23:59) 0.4 0 0 0 0.4
13-01-2020 8.4 (16:10) -5.4 (05:00) 1.5 10.28 (16:30) 7.22 (14:30) 0 0 0 0 0
12-01-2020 8.3 (15:50) -6.8 (08:10) 0.8 5 (13:50) 3.33 (13:20) 0 0 0 0 0
11-01-2020 4 (17:30) -4.4 (-00:0) -0.2 4.17 (09:30) 2.78 (09:30) 0 0 0 0 0
10-01-2020 6.8 (15:10) -3.4 (-00:0) 1.7 9.17 (16:30) 6.39 (16:30) 0 0 0 0 0
09-01-2020 13.2 (16:10) -2 (-00:0) 5.6 11.39 (17:30) 7.22 (17:30) 0 0 0 0 0
08-01-2020 10.2 (16:50) -5.7 (-00:0) 2.3 4.17 (13:40) 3.33 (13:40) 0 0 0 0 0
07-01-2020 8 (16:40) -3.9 (-00:0) 2 5 (10:10) 3.33 (15:30) 0 0 0 0 0
06-01-2020 14.2 (15:30) -4.8 (-00:0) 4.7 3.89 (17:20) 2.5 (17:20) 0 0 0 0 0
05-01-2020 1.6 (16:10) -2.3 (-00:0) -0.3 4.17 (13:10) 2.78 (03:10) 0 0 0 0 0
04-01-2020 5.2 (16:10) -0.5 (-00:0) 2.3 9.72 (17:00) 7.22 (17:00) 0 0 0 0 0
03-01-2020 9.1 (15:10) -0.8 (-00:0) 4.2 3.89 (17:10) 2.78 (17:10) 0 0 0 0 0
02-01-2020 12.4 (14:00) -2.7 (-00:0) 4.8 9.72 (15:20) 6.11 (13:20) 0 0 0 0 0
01-01-2020 16.5 (15:50) -4 (-00:0) 6.3 3.89 (16:30) 3.06 (18:30) 0 0 0 0 0
31-12-2019 13.2 (15:40) -4.7 (-00:0) 4.3 4.44 (13:50) 2.78 (13:50) 0 0 0 0 0
30-12-2019 -- (--) -- (--) -- -- (--) -- (--) -- 0 0 0 --
29-12-2019 12.9 (14:00) -3.4 (-00:0) 4.7 5.28 (15:10) 3.33 (15:00) 0 0 0 0 0
28-12-2019 7.6 (15:10) -2.6 (-00:0) 2.5 7.78 (16:40) 5.83 (16:40) 0 0 0 0 0
27-12-2019 2.6 (01:20) -0.3 (00:00) 1.1 5 (14:50) 3.61 (14:40) 0 0 0 0 0
26-12-2019 10.5 (16:10) 1.4 (00:00) 5.9 7.78 (16:10) 5 (15:20) 0 0 0 0 0
25-12-2019 15.8 (13:50) 0.3 (00:00) 8.1 8.06 (13:10) 4.72 (14:50) 0 0 0 0 0
24-12-2019 14.6 (16:50) 2.3 (08:40) 8.5 2.78 (03:00) 2.5 (07:00) 0 0 0 0 0
23-12-2019 14.1 (16:00) 0.8 (00:00) 7.5 5.28 (14:10) 3.33 (00:40) 0 0 0 0 0
22-12-2019 -- (--) -- (--) -- -- (--) -- (--) -- -- -- 0.6 0
21-12-2019 -- (--) -- (--) -- -- (--) -- (--) -- 0.8 1.8 0.4 --

Gráficas

Temp. máximas Temp. mínimas Temp. medias Precipitaciones Rachas de viento máximas Velocidades máximas media en intervalos de 10 minutos

Datos horarios

Fecha y hora oficial Temperatura (ºC) Velocidad del viento (km/h) Dirección del viento Racha (km/h) Dirección de racha Precipitación (mm) Presión (hPa) Tendencia (hPa) Humedad (%)
2020-01-19 23:00:00 -0.6 19 Nordeste 39 Nordeste 0 -- -- 77
2020-01-19 22:00:00 -0.1 31 Nordeste 60 Nordeste 0 -- -- 74
2020-01-19 21:00:00 0.4 35 Nordeste 58 Nordeste 0 -- -- 70
2020-01-19 20:00:00 1.1 32 Nordeste 65 Nordeste 0 -- -- 67
2020-01-19 19:00:00 2.1 35 Nordeste 62 Nordeste 0 -- -- 62
2020-01-19 18:00:00 3.5 45 Nordeste 82 Nordeste 0 -- -- 58
2020-01-19 17:00:00 4.9 51 Nordeste 75 Nordeste 0 -- -- 60
2020-01-19 16:00:00 5.7 49 Nordeste 79 Nordeste 0 -- -- 56
2020-01-19 15:00:00 5.9 51 Nordeste 78 Nordeste 0 -- -- 58
2020-01-19 14:00:00 5.5 53 Nordeste 83 Norte 0 -- -- 59
2020-01-19 13:00:00 4.9 49 Nordeste 73 Nordeste 0 -- -- 59
2020-01-19 12:00:00 4.5 45 Nordeste 66 Nordeste 0 -- -- 76
2020-01-19 11:00:00 4 37 Nordeste 59 Nordeste 0.2 -- -- 85
2020-01-19 10:00:00 3.4 26 Nordeste 38 Nordeste 0 -- -- 89
2020-01-19 09:00:00 2.7 15 Norte 23 Norte 0 -- -- 94
2020-01-19 08:00:00 2.3 8 Nordeste 17 Norte 0 -- -- 97
2020-01-19 07:00:00 1.9 8 Nordeste 13 Norte 0 -- -- 96
2020-01-19 06:00:00 2.4 7 Norte 17 Noroeste 0 -- -- 95
2020-01-19 05:00:00 3.5 9 Norte 23 Norte 0 -- -- 94
2020-01-19 04:00:00 4.3 10 Norte 19 Norte 0 -- -- 93
2020-01-19 03:00:00 4.8 12 Noroeste 27 Norte 0 -- -- 92
2020-01-19 02:00:00 4.8 12 Noroeste 23 Oeste 0.4 -- -- 95
2020-01-19 01:00:00 4.7 10 Oeste 24 Oeste 0.4 -- -- 93
2020-01-19 00:00:00 5.1 15 Oeste 29 Oeste 0 -- -- 89
2020-01-18 23:00:00 5.1 14 Oeste 30 Sudoeste 0 -- -- 86
2020-01-18 22:00:00 5.5 15 Sudoeste 28 Sudoeste 0.2 -- -- 86
2020-01-18 21:00:00 6.3 19 Oeste 50 Oeste 0.2 -- -- 88
2020-01-18 20:00:00 8.1 23 Oeste 51 Sudoeste 0 -- -- 84
2020-01-18 19:00:00 7.8 28 Sudoeste 49 Oeste 0 -- -- 93
2020-01-18 18:00:00 8.1 34 Sudoeste 58 Sudoeste 0 -- -- 92
2020-01-18 17:00:00 8.4 33 Sudoeste 58 Sudoeste 0 -- -- 95
2020-01-18 16:00:00 8.8 33 Sudoeste 59 Sudoeste 0 -- -- 94
2020-01-18 15:00:00 9.4 37 Sudoeste 58 Sudoeste 0 -- -- 91
2020-01-18 14:00:00 9.2 29 Sudoeste 46 Sudoeste 0 -- -- 91
2020-01-18 13:00:00 8.6 28 Sudoeste 46 Sudoeste 0 -- -- 93
2020-01-18 12:00:00 8 26 Sudoeste 42 Sudoeste 0 -- -- 95
2020-01-18 11:00:00 7.1 24 Sudoeste 42 Sudoeste 0 -- -- 96
2020-01-18 10:00:00 6.6 30 Sudoeste 41 Sudoeste 0 -- -- 95
2020-01-18 09:00:00 6.7 24 Sudoeste 42 Sudoeste 0 -- -- 91
2020-01-18 08:00:00 6.5 23 Sudoeste 45 Sudoeste 0.2 -- -- 91
2020-01-18 07:00:00 5.1 18 Sur 30 Sur 2 -- -- 95
2020-01-18 06:00:00 5.5 12 Sudoeste 26 Sudoeste 1.8 -- -- 96
2020-01-18 05:00:00 5.3 3 Sudoeste 6 Sudoeste 2 -- -- 94
2020-01-18 04:00:00 5.8 5 Oeste 21 Sudoeste 0 -- -- 89
2020-01-18 03:00:00 5.9 10 Sudoeste 27 Oeste 0 -- -- 87
2020-01-18 02:00:00 5.8 14 Sudoeste 24 Sudoeste 0 -- -- 89
2020-01-18 01:00:00 4.6 7 Sudoeste 13 Sudoeste 0 -- -- 93
2020-01-18 00:00:00 3.9 0 Calma 12 Oeste 0 -- -- 89
2020-01-17 23:00:00 3.4 6 Sudoeste 10 Sudoeste 0 -- -- 90
2020-01-17 22:00:00 3.9 5 Oeste 15 Sudoeste 0 -- -- 87
2020-01-17 21:00:00 4.2 5 Sudoeste 13 Oeste 0 -- -- 85
2020-01-17 20:00:00 5.4 5 Oeste 9 Oeste 0 -- -- 79
2020-01-17 19:00:00 7.1 2 Noroeste 6 Norte 0 -- -- 68
2020-01-17 18:00:00 8.6 4 Noroeste 20 Oeste 0 -- -- 65
2020-01-17 17:00:00 9.8 13 Oeste 23 Noroeste 0 -- -- 57
2020-01-17 16:00:00 10 14 Oeste 25 Sudoeste 0 -- -- 56
2020-01-17 15:00:00 10.3 14 Oeste 28 Oeste 0 -- -- 63
2020-01-17 14:00:00 9.6 19 Oeste 31 Oeste 0 -- -- 62
2020-01-17 13:00:00 8.7 19 Oeste 32 Oeste 0 -- -- 68
2020-01-17 12:00:00 8.2 14 Oeste 23 Oeste 0 -- -- 78
2020-01-17 11:00:00 6.7 9 Oeste 26 Oeste 0 -- -- 90
2020-01-17 10:00:00 6.5 14 Oeste 27 Oeste 0.2 -- -- 94
2020-01-17 09:00:00 6.1 13 Sudoeste 37 Sudoeste 0.2 -- -- 97
2020-01-17 08:00:00 6 21 Sudoeste 36 Sudoeste 0 -- -- 96
2020-01-17 07:00:00 6.1 22 Sudoeste 34 Sudoeste 0 -- -- 94
2020-01-17 06:00:00 6 22 Sudoeste 38 Sudoeste 0 -- -- 92
2020-01-17 05:00:00 5.9 20 Sudoeste 37 Sudoeste 0 -- -- 92
2020-01-17 04:00:00 5.9 23 Sudoeste 39 Sudoeste 0 -- -- 91
2020-01-17 03:00:00 6.1 24 Sudoeste 36 Sudoeste 0 -- -- 89
2020-01-17 02:00:00 6.3 19 Sudoeste 39 Sudoeste 0 -- -- 92
2020-01-17 01:00:00 6.7 23 Sudoeste 46 Sudoeste 0 -- -- 91
2020-01-17 00:00:00 6.8 25 Sudoeste 48 Sudoeste 0 -- -- 90
2020-01-16 23:00:00 7 28 Sudoeste 56 Sudoeste 0 -- -- 92
2020-01-16 22:00:00 7.7 29 Sudoeste 55 Sur 0.2 -- -- 81
2020-01-16 21:00:00 7.8 37 Sudoeste 62 Sudoeste 0 -- -- 76
2020-01-16 20:00:00 9.2 33 Sudoeste 51 Sudoeste 0 -- -- 65
2020-01-16 19:00:00 8.6 26 Sudoeste 48 Sudoeste 0 -- -- 61
2020-01-16 18:00:00 9.3 25 Sudoeste 50 Sudoeste 0 -- -- 62
2020-01-16 17:00:00 9.7 31 Sudoeste 54 Sudoeste 0 -- -- 70
2020-01-16 16:00:00 8.9 28 Sudoeste 49 Sudoeste 0 -- -- 74
2020-01-16 15:00:00 9.8 36 Sudoeste 55 Sudoeste 0 -- -- 71
2020-01-16 14:00:00 9.2 24 Sudoeste 49 Sudoeste 0 -- -- 71
2020-01-16 13:00:00 9 23 Sudoeste 49 Sudoeste 0 -- -- 74
2020-01-16 12:00:00 9.5 33 Sudoeste 50 Sudoeste 0 -- -- 78
2020-01-16 11:00:00 8.9 20 Sudoeste 40 Sudoeste 0 -- -- 85
2020-01-16 10:00:00 8.5 23 Sudoeste 43 Sur 0 -- -- 87
2020-01-16 09:00:00 8.1 23 Sudoeste 47 Sudoeste 0 -- -- 94
2020-01-16 08:00:00 8.6 30 Sudoeste 48 Sudoeste 0 -- -- 95
2020-01-16 07:00:00 8.8 23 Sudoeste 36 Sudoeste 0 -- -- 94
2020-01-16 06:00:00 8.6 18 Sudoeste 35 Sudoeste 0 -- -- 94
2020-01-16 05:00:00 8.3 17 Sudoeste 26 Sudoeste 0 -- -- 96
2020-01-16 04:00:00 8 15 Sudoeste 23 Sudoeste 0 -- -- 94
2020-01-16 03:00:00 8 14 Sudoeste 27 Sudoeste 0 -- -- 95
2020-01-16 02:00:00 8.2 17 Sudoeste 26 Sudoeste 0 -- -- 95
2020-01-16 01:00:00 8 13 Sudoeste 21 Sudoeste 0 -- -- 96
2020-01-16 00:00:00 7.8 10 Sudoeste 32 Sur 0 -- -- 94
2020-01-15 23:00:00 6.9 17 Sudoeste 23 Sur 0 -- -- 97
2020-01-15 22:00:00 7.4 8 Sur 14 Sudoeste 0 -- -- 94
2020-01-15 21:00:00 7.4 4 Sur 19 Sudoeste 0 -- -- 93
2020-01-15 20:00:00 7.7 9 Sudoeste 23 Sudoeste 0 -- -- 93
2020-01-15 19:00:00 8.2 15 Sudoeste 37 Sudoeste 0.2 -- -- 94
2020-01-15 18:00:00 8.4 22 Sudoeste 38 Sudoeste 0 -- -- 94
2020-01-15 17:00:00 8.6 19 Sudoeste 41 Sudoeste 0 -- -- 95
2020-01-15 16:00:00 8.1 25 Sudoeste 44 Sudoeste 0 -- -- 95
2020-01-15 15:00:00 7.8 23 Sudoeste 41 Sudoeste 0 -- -- 97
2020-01-15 14:00:00 7.5 22 Sudoeste 41 Sudoeste 0 -- -- 96
2020-01-15 13:00:00 7.8 26 Sudoeste 40 Sudoeste 0.2 -- -- 97
2020-01-15 12:00:00 6.6 22 Sudoeste 41 Sudoeste 0.6 -- -- 97
2020-01-15 11:00:00 6.5 16 Sudoeste 29 Sudoeste 0 -- -- 96
2020-01-15 10:00:00 6.2 16 Sudoeste 35 Sudoeste 0.2 -- -- 96
2020-01-15 09:00:00 5.8 15 Oeste 28 Oeste 0 -- -- 96
2020-01-15 08:00:00 6 11 Oeste 27 Sur 0 -- -- 93
2020-01-15 07:00:00 5.9 19 Sudoeste 38 Sudoeste 0 -- -- 93
2020-01-15 06:00:00 6.3 23 Sudoeste 40 Sudoeste 0 -- -- 83
2020-01-15 05:00:00 6 23 Sudoeste 45 Sur 0 -- -- 85
2020-01-15 04:00:00 6.1 26 Sudoeste 47 Sudoeste 0 -- -- 88
2020-01-15 03:00:00 6.4 27 Sudoeste 53 Sudoeste 0 -- -- 90
2020-01-15 02:00:00 6.5 30 Sudoeste 51 Sudoeste 0 -- -- 91
2020-01-15 01:00:00 6.5 29 Sudoeste 50 Sudoeste 0.4 -- -- 93
2020-01-15 00:00:00 6.6 35 Sudoeste 50 Sudoeste 0.2 -- -- 95
2020-01-14 23:00:00 6.3 26 Sur 41 Sudoeste 0.2 -- -- 95
2020-01-14 22:00:00 5.6 15 Sudoeste 32 Sudoeste 0 -- -- 96
2020-01-14 21:00:00 4.3 18 Sur 35 Oeste 0 -- -- 96
2020-01-14 20:00:00 4.7 18 Sudoeste 27 Sudoeste 0 -- -- 93
2020-01-14 19:00:00 4.8 15 Sudoeste 37 Sudoeste 0 -- -- 89
2020-01-14 18:00:00 5.2 9 Sudoeste 41 Sudoeste 0 -- -- 86
2020-01-14 17:00:00 5.7 23 Sudoeste 38 Sudoeste 0 -- -- 86
2020-01-14 16:00:00 5.1 19 Sudoeste 29 Sudoeste 0 -- -- 87
2020-01-14 15:00:00 5 14 Sudoeste 35 Sudoeste 0 -- -- 86
2020-01-14 14:00:00 5.4 19 Sudoeste 30 Sudoeste 0 -- -- 82
2020-01-14 13:00:00 4.3 15 Sudoeste 27 Sudoeste 0 -- -- 87
2020-01-14 12:00:00 3.7 10 Sudoeste 15 Sudoeste 0 -- -- 87
2020-01-14 11:00:00 1.8 8 Sudoeste 12 Sudoeste 0 -- -- 95
2020-01-14 10:00:00 -0.4 6 Oeste 11 Sudoeste 0 -- -- 95
2020-01-14 09:00:00 -0.5 6 Sudoeste 13 Oeste 0 -- -- 94
2020-01-14 08:00:00 0.4 8 Sudoeste 14 Sudoeste 0 -- -- 96
2020-01-14 07:00:00 -1.6 5 Sudoeste 7 Sudoeste 0 -- -- 95
2020-01-14 06:00:00 -0.3 3 Sudeste 8 Sur 0 -- -- 95
2020-01-14 05:00:00 -0.2 3 Sur 10 Sur 0 -- -- 94
2020-01-14 04:00:00 0.5 4 Oeste 10 Sudoeste 0 -- -- 93
2020-01-14 03:00:00 0.5 6 Sur 12 Sudoeste 0 -- -- 92
2020-01-14 02:00:00 0.1 10 Sudoeste 14 Sudoeste 0 -- -- 93
2020-01-14 01:00:00 0.8 5 Sur 11 Sur 0 -- -- 89
2020-01-14 00:00:00 1.3 7 Sur 14 Noroeste 0 -- -- 87
2020-01-13 23:00:00 2.4 8 Oeste 14 Sur 0 -- -- 84
2020-01-13 22:00:00 2.3 6 Oeste 26 Sudoeste 0 -- -- 86
2020-01-13 21:00:00 2.7 18 Sudoeste 31 Sudoeste 0 -- -- 82
2020-01-13 20:00:00 2.7 7 Sudoeste 22 Oeste 0 -- -- 78
2020-01-13 19:00:00 4 4 Sudoeste 18 Sudoeste 0 -- -- 73
2020-01-13 18:00:00 6.3 11 Sudoeste 31 Sudoeste 0 -- -- 56
2020-01-13 17:00:00 7.9 21 Sudoeste 37 Sudoeste 0 -- -- 48
2020-01-13 16:00:00 8.2 19 Sudoeste 36 Sudoeste 0 -- -- 54
2020-01-13 15:00:00 7.3 18 Sudoeste 35 Sudoeste 0 -- -- 59
2020-01-13 14:00:00 7 24 Sudoeste 34 Sudoeste 0 -- -- 60
2020-01-13 13:00:00 6.8 19 Sudoeste 33 Sudoeste 0 -- -- 64
2020-01-13 12:00:00 5.6 15 Sudoeste 26 Sudoeste 0 -- -- 69
2020-01-13 11:00:00 3.9 12 Sudoeste 22 Sudoeste 0 -- -- 76
2020-01-13 10:00:00 1.9 7 Sudoeste 15 Oeste 0 -- -- 85
2020-01-13 09:00:00 -0.5 0 Calma 9 Sur 0 -- -- 92
2020-01-13 08:00:00 -1.2 7 Sur 11 Sur 0 -- -- 95
2020-01-13 07:00:00 -3.8 4 Sudoeste 8 Sudoeste 0 -- -- 94
2020-01-13 06:00:00 -4.8 8 Sudoeste 11 Sudoeste 0 -- -- 98
2020-01-13 05:00:00 -5.4 5 Oeste 6 Oeste 0 -- -- 97
2020-01-13 04:00:00 -5 0 Calma 5 Este 0 -- -- 95
2020-01-13 03:00:00 -4.2 3 Nordeste 5 Norte 0 -- -- 95
2020-01-13 02:00:00 -3.6 2 Oeste 6 Oeste 0 -- -- 95
2020-01-13 01:00:00 -3.6 4 Oeste 8 Oeste 0 -- -- 95
2020-01-13 00:00:00 -3.4 4 Sudoeste 5 Sudoeste 0 -- -- 95
2020-01-12 23:00:00 -2.9 0 Calma 6 Oeste 0 -- -- 94
2020-01-12 22:00:00 -2.1 0 Calma 4 Este 0 -- -- 94
2020-01-12 21:00:00 -0.7 4 Norte 9 Nordeste 0 -- -- 92
2020-01-12 20:00:00 0.7 5 Nordeste 6 Nordeste 0 -- -- 86
2020-01-12 19:00:00 3.5 3 Nordeste 12 Nordeste 0 -- -- 80
2020-01-12 18:00:00 5.5 9 Nordeste 14 Nordeste 0 -- -- 73
2020-01-12 17:00:00 7.4 10 Nordeste 15 Nordeste 0 -- -- 67
2020-01-12 16:00:00 8.2 9 Nordeste 15 Nordeste 0 -- -- 64
2020-01-12 15:00:00 7.9 10 Nordeste 15 Nordeste 0 -- -- 64
2020-01-12 14:00:00 6.8 10 Nordeste 18 Este 0 -- -- 73
2020-01-12 13:00:00 5.3 11 Nordeste 15 Nordeste 0 -- -- 75
2020-01-12 12:00:00 2.9 5 Este 8 Este 0 -- -- 78
2020-01-12 11:00:00 -1.2 0 Calma 5 Noroeste 0 -- -- 98
2020-01-12 10:00:00 -4.4 0 Calma 5 Norte 0 -- -- 96
2020-01-12 09:00:00 -6.6 3 Oeste 6 Noroeste 0 -- -- 95
2020-01-12 08:00:00 -6.7 4 Oeste 7 Oeste 0 -- -- 94
2020-01-12 07:00:00 -6.1 3 Noroeste 8 Oeste 0 -- -- 95
2020-01-12 06:00:00 -6 6 Oeste 8 Oeste 0 -- -- 96
2020-01-12 05:00:00 -5.9 5 Oeste 11 Oeste 0 -- -- 97
2020-01-12 04:00:00 -6.1 8 Oeste 10 Oeste 0 -- -- 97
2020-01-12 03:00:00 -5.6 8 Oeste 9 Oeste 0 -- -- 98
2020-01-12 02:00:00 -5.5 4 Oeste 6 Oeste 0 -- -- 98
2020-01-12 01:00:00 -4.3 4 Oeste 6 Oeste 0 -- -- 98
2020-01-12 00:00:00 -3.5 3 Oeste 6 Oeste 0 -- -- 98
2020-01-11 23:00:00 -2.8 2 Sur 4 Sur 0 -- -- 97
2020-01-11 22:00:00 -2.3 0 Calma 5 Oeste 0 -- -- 97
2020-01-11 21:00:00 -1.8 4 Este 7 Nordeste 0 -- -- 96
2020-01-11 20:00:00 -0.5 3 Noroeste 7 Norte 0 -- -- 94
2020-01-11 19:00:00 1.5 0 Calma 8 Nordeste 0 -- -- 91
2020-01-11 18:00:00 3.5 6 Nordeste 8 Nordeste 0 -- -- 87
2020-01-11 17:00:00 3.9 5 Nordeste 10 Norte 0 -- -- 88
2020-01-11 16:00:00 3 7 Nordeste 13 Nordeste 0 -- -- 98
2020-01-11 15:00:00 1.3 9 Nordeste 14 Nordeste 0 -- -- 99
2020-01-11 14:00:00 0.2 8 Nordeste 12 Nordeste 0 -- -- 99
2020-01-11 13:00:00 -0.4 8 Nordeste 12 Nordeste 0 -- -- 100
2020-01-11 12:00:00 -1 6 Nordeste 8 Nordeste 0 -- -- 99
2020-01-11 11:00:00 -1.8 5 Norte 13 Nordeste 0 -- -- 99
2020-01-11 10:00:00 -2.4 9 Nordeste 15 Nordeste 0 -- -- 98
2020-01-11 09:00:00 -2.9 6 Nordeste 9 Nordeste 0 -- -- 98
2020-01-11 08:00:00 -4.3 3 Noroeste 6 Norte 0 -- -- 97
2020-01-11 07:00:00 -3.6 3 Norte 5 Norte 0 -- -- 97
2020-01-11 06:00:00 -3.6 5 Norte 7 Norte 0 -- -- 98
2020-01-11 05:00:00 -3.1 6 Noroeste 11 Noroeste 0 -- -- 97
2020-01-11 04:00:00 -2.7 5 Este 8 Este 0 -- -- 96
2020-01-11 03:00:00 -2.2 6 Norte 13 Sudoeste 0 -- -- 97
2020-01-11 02:00:00 -2.2 4 Este 8 Este 0 -- -- 97
2020-01-11 01:00:00 -2.2 9 Norte 10 Norte 0 -- -- 96
2020-01-11 00:00:00 -1.4 2 Nordeste 10 Nordeste 0 -- -- 95
2020-01-10 23:00:00 -0.7 6 Nordeste 10 Nordeste 0 -- -- 94
2020-01-10 22:00:00 0.1 4 Este 10 Nordeste 0 -- -- 92
2020-01-10 21:00:00 1.6 6 Nordeste 14 Este 0 -- -- 87
2020-01-10 20:00:00 1.9 8 Este 17 Nordeste 0 -- -- 88
2020-01-10 19:00:00 2.9 12 Nordeste 18 Nordeste 0 -- -- 83
2020-01-10 18:00:00 4.8 14 Nordeste 31 Nordeste 0 -- -- 76
2020-01-10 17:00:00 6 22 Nordeste 33 Nordeste 0 -- -- 70
2020-01-10 16:00:00 6.5 22 Nordeste 31 Nordeste 0 -- -- 68
2020-01-10 15:00:00 6.4 19 Nordeste 30 Este 0 -- -- 70
2020-01-10 14:00:00 6 17 Nordeste 28 Nordeste 0 -- -- 71
2020-01-10 13:00:00 5.1 20 Nordeste 26 Nordeste 0 -- -- 74
2020-01-10 12:00:00 3.7 16 Nordeste 21 Nordeste 0 -- -- 80
2020-01-10 11:00:00 0.5 2 Nordeste 5 Nordeste 0 -- -- 98
2020-01-10 10:00:00 -2.6 0 Calma 3 Oeste 0 -- -- 98
2020-01-10 09:00:00 -3.4 2 Sudoeste 4 Oeste 0 -- -- 97
2020-01-10 08:00:00 -3 0 Calma 7 Oeste 0 -- -- 96
2020-01-10 07:00:00 -2.7 2 Noroeste 5 Norte 0 -- -- 96
2020-01-10 06:00:00 -1.2 0 Calma 8 Nordeste 0 -- -- 95
2020-01-10 05:00:00 -0.6 5 Este 6 Norte 0 -- -- 96
2020-01-10 04:00:00 0.1 3 Nordeste 7 Noroeste 0 -- -- 94
2020-01-10 03:00:00 1.8 2 Oeste 11 Oeste 0 -- -- 93
2020-01-10 02:00:00 2.6 4 Sudoeste 10 Noroeste 0 -- -- 93
2020-01-10 01:00:00 4.2 4 Oeste 19 Noroeste 0 -- -- 91
2020-01-10 00:00:00 5.1 10 Noroeste 18 Noroeste 0 -- -- 90
2020-01-09 23:00:00 5.2 11 Noroeste 21 Noroeste 0 -- -- 91
2020-01-09 22:00:00 5.8 11 Oeste 16 Oeste 0 -- -- 84
2020-01-09 21:00:00 7.3 8 Oeste 31 Noroeste 0 -- -- 84
2020-01-09 20:00:00 8.9 25 Noroeste 38 Noroeste 0 -- -- 79
2020-01-09 19:00:00 9.9 12 Sudoeste 21 Oeste 0 -- -- 83
2020-01-09 18:00:00 10.7 14 Oeste 41 Oeste 0 -- -- 78
2020-01-09 17:00:00 12.3 21 Oeste 35 Oeste 0 -- -- 74
2020-01-09 16:00:00 13 13 Sudoeste 23 Sudoeste 0 -- -- 73
2020-01-09 15:00:00 12 13 Oeste 22 Oeste 0 -- -- 78
2020-01-09 14:00:00 12.7 9 Noroeste 19 Sur 0 -- -- 78
2020-01-09 13:00:00 10.7 10 Sudoeste 14 Sur 0 -- -- 79
2020-01-09 12:00:00 8.2 6 Sudoeste 10 Sudoeste 0 -- -- 80
2020-01-09 11:00:00 3.1 3 Oeste 7 Oeste 0 -- -- 91
2020-01-09 10:00:00 0.2 4 Oeste 15 Sur 0 -- -- 93
2020-01-09 09:00:00 -1.3 7 Sur 10 Sudoeste 0 -- -- 96
2020-01-09 08:00:00 -1.8 6 Oeste 9 Noroeste 0 -- -- 95
2020-01-09 07:00:00 -1 5 Oeste 11 Noroeste 0 -- -- 94
2020-01-09 06:00:00 -0.5 5 Sudoeste 12 Sudoeste 0 -- -- 97
2020-01-09 05:00:00 -1.9 8 Sudoeste 10 Oeste 0 -- -- 96
2020-01-09 04:00:00 -1.3 4 Oeste 8 Oeste 0 -- -- 95
2020-01-09 03:00:00 -1.2 7 Noroeste 12 Oeste 0 -- -- 95
2020-01-09 02:00:00 -0.8 5 Oeste 10 Oeste 0 -- -- 95
2020-01-09 01:00:00 -0.6 6 Sudoeste 9 Sudoeste 0 -- -- 95
2020-01-09 00:00:00 0 6 Oeste 9 Oeste 0 -- -- 94
2020-01-08 23:00:00 0.6 5 Oeste 8 Oeste 0 -- -- 91
2020-01-08 22:00:00 1.7 0 Calma 6 Oeste 0 -- -- 90
2020-01-08 21:00:00 2.3 5 Noroeste 7 Noroeste 0 -- -- 87
2020-01-08 20:00:00 4.3 4 Nordeste 6 Nordeste 0 -- -- 82
2020-01-08 19:00:00 6.2 4 Nordeste 9 Nordeste 0 -- -- 73
2020-01-08 18:00:00 8.9 6 Nordeste 14 Nordeste 0 -- -- 61
2020-01-08 17:00:00 10.1 8 Nordeste 12 Nordeste 0 -- -- 60
2020-01-08 16:00:00 9.6 9 Nordeste 14 Nordeste 0 -- -- 60
2020-01-08 15:00:00 8.2 9 Nordeste 15 Nordeste 0 -- -- 63
2020-01-08 14:00:00 6.6 9 Nordeste 15 Nordeste 0 -- -- 70
2020-01-08 13:00:00 4.6 5 Nordeste 9 Nordeste 0 -- -- 84
2020-01-08 12:00:00 0.7 4 Norte 6 Nordeste 0 -- -- 97
2020-01-08 11:00:00 -1.8 5 Nordeste 9 Este 0 -- -- 98
2020-01-08 10:00:00 -4 0 Calma 3 Este 0 -- -- 99
2020-01-08 09:00:00 -5.4 0 Calma 4 Oeste 0 -- -- 98
2020-01-08 08:00:00 -5.5 0 Calma 6 Este 0 -- -- 98
2020-01-08 07:00:00 -4.8 2 Este 4 Norte 0 -- -- 98
2020-01-08 06:00:00 -4.9 3 Norte 8 Sudoeste 0 -- -- 98
2020-01-08 05:00:00 -4.6 6 Sudoeste 8 Sudoeste 0 -- -- 98
2020-01-08 04:00:00 -3.8 3 Oeste 7 Oeste 0 -- -- 99
2020-01-08 03:00:00 -3.4 5 Sudoeste 7 Oeste 0 -- -- 98
2020-01-08 02:00:00 -2.9 3 Sudoeste 6 Nordeste 0 -- -- 98
2020-01-08 01:00:00 -2.7 5 Nordeste 8 Nordeste 0 -- -- 98
2020-01-08 00:00:00 -2.8 0 Calma 3 Norte 0 -- -- 97
2020-01-07 23:00:00 -2.1 0 Calma 5 Este 0 -- -- 96
2020-01-07 22:00:00 -1.5 0 Calma 5 Norte 0 -- -- 96
2020-01-07 21:00:00 -0.1 3 Norte 6 Oeste 0 -- -- 94
2020-01-07 20:00:00 1.1 5 Oeste 7 Oeste 0 -- -- 88
2020-01-07 19:00:00 3.9 4 Norte 8 Nordeste 0 -- -- 87
2020-01-07 18:00:00 6.1 6 Nordeste 12 Nordeste 0 -- -- 80
2020-01-07 17:00:00 7.9 9 Nordeste 13 Nordeste 0 -- -- 72
2020-01-07 16:00:00 7.7 9 Nordeste 14 Nordeste 0 -- -- 70
2020-01-07 15:00:00 7.2 6 Nordeste 10 Este 0 -- -- 74
2020-01-07 14:00:00 3.4 3 Nordeste 9 Este 0 -- -- 100
2020-01-07 13:00:00 -0.3 3 Norte 8 Norte 0 -- -- 100
2020-01-07 12:00:00 -2.1 5 Norte 9 Nordeste 0 -- -- 99
2020-01-07 11:00:00 -3 7 Nordeste 18 Nordeste 0 -- -- 99
2020-01-07 10:00:00 -3.4 10 Nordeste 15 Nordeste 0 -- -- 99
2020-01-07 09:00:00 -3.8 4 Nordeste 6 Nordeste 0 -- -- 98
2020-01-07 08:00:00 -3.5 0 Calma 6 Norte 0 -- -- 98
2020-01-07 07:00:00 -3.5 4 Nordeste 10 Nordeste 0 -- -- 98
2020-01-07 06:00:00 -3.4 6 Norte 10 Norte 0 -- -- 99
2020-01-07 05:00:00 -2.7 7 Nordeste 12 Nordeste 0 -- -- 98
2020-01-07 04:00:00 -2.5 7 Nordeste 10 Nordeste 0 -- -- 98
2020-01-07 03:00:00 -2.7 4 Nordeste 5 Nordeste 0 -- -- 98
2020-01-07 02:00:00 -2.2 3 Nordeste 5 Sudoeste 0 -- -- 97
2020-01-07 01:00:00 -2 0 Calma 4 Noroeste 0 -- -- 96
2020-01-07 00:00:00 -1.5 5 Norte 8 Oeste 0 -- -- 96
2020-01-06 23:00:00 -1.2 6 Sudoeste 6 Sudoeste 0 -- -- 95
2020-01-06 22:00:00 0.4 0 Calma 7 Noroeste 0 -- -- 94
2020-01-06 21:00:00 1.3 4 Noroeste 8 Norte 0 -- -- 93
2020-01-06 20:00:00 3.2 6 Norte 8 Norte 0 -- -- 89
2020-01-06 19:00:00 5.8 5 Nordeste 8 Norte 0 -- -- 84
2020-01-06 18:00:00 8.2 8 Norte 14 Norte 0 -- -- 75
2020-01-06 17:00:00 11.6 6 Noroeste 12 Norte 0 -- -- 68
2020-01-06 16:00:00 13.5 3 Nordeste 6 Sudoeste 0 -- -- 40
2020-01-06 15:00:00 13.8 5 Sur 9 Sur 0 -- -- 37
2020-01-06 14:00:00 11.9 4 Sur 8 Sudoeste 0 -- -- 49
2020-01-06 13:00:00 8.7 3 Este 7 Sudeste 0 -- -- 77
2020-01-06 12:00:00 4.4 3 Sur 5 Sur 0 -- -- 99
2020-01-06 11:00:00 -0.1 3 Oeste 5 Oeste 0 -- -- 100
2020-01-06 10:00:00 -3.2 3 Oeste 4 Oeste 0 -- -- 99